sensor_id;sensor_type;location;lat;lon;timestamp;pressure;altitude;pressure_sealevel;temperature;humidity
45285;BME280;31026;43.780;25.948;2022-10-31T00:01:27;101188.63;;;20.57;64.21
45285;BME280;31026;43.780;25.948;2022-10-31T00:03:55;101176.34;;;20.54;64.35
45285;BME280;31026;43.780;25.948;2022-10-31T00:06:27;101172.38;;;20.58;64.41
45285;BME280;31026;43.780;25.948;2022-10-31T00:08:56;101173.41;;;20.57;64.20
45285;BME280;31026;43.780;25.948;2022-10-31T00:11:24;101180.75;;;20.55;64.37
45285;BME280;31026;43.780;25.948;2022-10-31T00:13:53;101180.75;;;20.55;64.33
45285;BME280;31026;43.780;25.948;2022-10-31T00:16:22;101199.38;;;20.57;64.30
45285;BME280;31026;43.780;25.948;2022-10-31T00:18:52;101191.50;;;20.55;64.08
45285;BME280;31026;43.780;25.948;2022-10-31T00:21:21;101178.19;;;20.54;64.65
45285;BME280;31026;43.780;25.948;2022-10-31T00:23:52;101186.13;;;20.55;64.23
45285;BME280;31026;43.780;25.948;2022-10-31T00:26:20;101195.84;;;20.56;64.13
45285;BME280;31026;43.780;25.948;2022-10-31T00:28:48;101177.34;;;20.53;63.92
45285;BME280;31026;43.780;25.948;2022-10-31T00:31:17;101180.88;;;20.54;64.17
45285;BME280;31026;43.780;25.948;2022-10-31T00:33:45;101174.78;;;20.52;64.26
45285;BME280;31026;43.780;25.948;2022-10-31T00:36:14;101187.09;;;20.54;64.42
45285;BME280;31026;43.780;25.948;2022-10-31T00:38:43;101195.41;;;20.51;64.23
45285;BME280;31026;43.780;25.948;2022-10-31T00:41:14;101189.06;;;20.52;64.50
45285;BME280;31026;43.780;25.948;2022-10-31T00:43:43;101199.94;;;20.51;63.94
45285;BME280;31026;43.780;25.948;2022-10-31T00:46:12;101198.09;;;20.51;63.81
45285;BME280;31026;43.780;25.948;2022-10-31T00:48:40;101195.16;;;20.54;63.86
45285;BME280;31026;43.780;25.948;2022-10-31T00:51:09;101197.84;;;20.54;63.67
45285;BME280;31026;43.780;25.948;2022-10-31T00:53:37;101191.50;;;20.55;63.73
45285;BME280;31026;43.780;25.948;2022-10-31T00:56:06;101196.84;;;20.55;63.54
45285;BME280;31026;43.780;25.948;2022-10-31T00:58:37;101201.34;;;20.55;63.73
45285;BME280;31026;43.780;25.948;2022-10-31T01:01:05;101211.97;;;20.56;63.88
45285;BME280;31026;43.780;25.948;2022-10-31T01:03:34;101204.06;;;20.55;63.73
45285;BME280;31026;43.780;25.948;2022-10-31T01:06:05;101200.53;;;20.54;63.41
45285;BME280;31026;43.780;25.948;2022-10-31T01:08:33;101199.69;;;20.54;63.72
45285;BME280;31026;43.780;25.948;2022-10-31T01:11:04;101205.88;;;20.54;63.71
45285;BME280;31026;43.780;25.948;2022-10-31T01:13:33;101211.25;;;20.54;63.45
45285;BME280;31026;43.780;25.948;2022-10-31T01:16:05;101205.75;;;20.56;63.56
45285;BME280;31026;43.780;25.948;2022-10-31T01:18:35;101206.91;;;20.53;63.51
45285;BME280;31026;43.780;25.948;2022-10-31T01:21:04;101222.00;;;20.54;63.27
45285;BME280;31026;43.780;25.948;2022-10-31T01:23:33;101220.31;;;20.53;63.24
45285;BME280;31026;43.780;25.948;2022-10-31T01:26:06;101208.00;;;20.51;63.48
45285;BME280;31026;43.780;25.948;2022-10-31T01:28:35;101206.72;;;20.55;63.28
45285;BME280;31026;43.780;25.948;2022-10-31T01:31:07;101195.41;;;20.51;63.29
45285;BME280;31026;43.780;25.948;2022-10-31T01:33:36;101194.00;;;20.57;63.25
45285;BME280;31026;43.780;25.948;2022-10-31T01:36:12;101182.13;;;20.50;63.10
45285;BME280;31026;43.780;25.948;2022-10-31T01:38:41;101190.91;;;20.52;63.25
45285;BME280;31026;43.780;25.948;2022-10-31T01:41:09;101189.19;;;20.51;63.27
45285;BME280;31026;43.780;25.948;2022-10-31T01:43:42;101187.50;;;20.50;63.51
45285;BME280;31026;43.780;25.948;2022-10-31T01:46:13;101192.88;;;20.50;63.42
45285;BME280;31026;43.780;25.948;2022-10-31T01:48:43;101214.06;;;20.53;63.32
45285;BME280;31026;43.780;25.948;2022-10-31T01:51:11;101207.88;;;20.52;63.04
45285;BME280;31026;43.780;25.948;2022-10-31T01:53:41;101212.66;;;20.49;63.43
45285;BME280;31026;43.780;25.948;2022-10-31T01:56:10;101214.94;;;20.53;63.35
45285;BME280;31026;43.780;25.948;2022-10-31T01:58:39;101220.59;;;20.50;63.14
45285;BME280;31026;43.780;25.948;2022-10-31T02:01:08;101233.88;;;20.52;62.98
45285;BME280;31026;43.780;25.948;2022-10-31T02:03:38;101226.06;;;21.20;61.43
45285;BME280;31026;43.780;25.948;2022-10-31T02:06:08;101233.22;;;21.60;60.47
45285;BME280;31026;43.780;25.948;2022-10-31T02:08:38;101237.19;;;21.75;59.72
45285;BME280;31026;43.780;25.948;2022-10-31T02:11:07;101224.81;;;21.34;61.20
45285;BME280;31026;43.780;25.948;2022-10-31T02:13:36;101228.78;;;21.30;61.36
45285;BME280;31026;43.780;25.948;2022-10-31T02:16:05;101233.34;;;21.58;60.43
45285;BME280;31026;43.780;25.948;2022-10-31T02:18:34;101240.72;;;21.95;59.59
45285;BME280;31026;43.780;25.948;2022-10-31T02:21:06;101233.22;;;22.56;58.16
45285;BME280;31026;43.780;25.948;2022-10-31T02:23:55;101233.13;;;22.38;58.35
45285;BME280;31026;43.780;25.948;2022-10-31T02:26:34;101244.69;;;21.72;59.99
45285;BME280;31026;43.780;25.948;2022-10-31T02:29:13;101239.41;;;21.31;61.22
45285;BME280;31026;43.780;25.948;2022-10-31T02:31:54;101242.44;;;21.67;60.45
45285;BME280;31026;43.780;25.948;2022-10-31T02:34:25;101244.13;;;21.88;59.78
45285;BME280;31026;43.780;25.948;2022-10-31T02:36:56;101239.75;;;21.77;60.34
45285;BME280;31026;43.780;25.948;2022-10-31T02:39:26;101243.94;;;21.40;61.25
45285;BME280;31026;43.780;25.948;2022-10-31T02:42:00;101231.94;;;21.64;60.80
45285;BME280;31026;43.780;25.948;2022-10-31T02:44:32;101244.69;;;21.91;59.68
45285;BME280;31026;43.780;25.948;2022-10-31T02:47:06;101241.00;;;21.82;59.79
45285;BME280;31026;43.780;25.948;2022-10-31T02:49:38;101241.16;;;21.52;60.83
45285;BME280;31026;43.780;25.948;2022-10-31T02:52:17;101245.81;;;21.50;61.06
45285;BME280;31026;43.780;25.948;2022-10-31T02:54:46;101237.59;;;21.80;59.90
45285;BME280;31026;43.780;25.948;2022-10-31T02:57:15;101241.69;;;21.94;59.70
45285;BME280;31026;43.780;25.948;2022-10-31T02:59:46;101262.25;;;21.66;60.51
45285;BME280;31026;43.780;25.948;2022-10-31T03:02:24;101253.47;;;21.44;61.18
45285;BME280;31026;43.780;25.948;2022-10-31T03:05:02;101263.09;;;21.76;60.29
45285;BME280;31026;43.780;25.948;2022-10-31T03:07:39;101265.09;;;21.94;59.83
45285;BME280;31026;43.780;25.948;2022-10-31T03:10:12;101261.41;;;21.75;60.20
45285;BME280;31026;43.780;25.948;2022-10-31T03:12:47;101267.47;;;21.48;60.81
45285;BME280;31026;43.780;25.948;2022-10-31T03:15:19;101271.22;;;21.67;60.50
45285;BME280;31026;43.780;25.948;2022-10-31T03:17:56;101269.19;;;21.88;59.91
45285;BME280;31026;43.780;25.948;2022-10-31T03:20:28;101289.75;;;21.99;59.61
45285;BME280;31026;43.780;25.948;2022-10-31T03:22:59;101286.63;;;21.64;60.67
45285;BME280;31026;43.780;25.948;2022-10-31T03:25:29;101283.56;;;21.38;61.16
45285;BME280;31026;43.780;25.948;2022-10-31T03:27:57;101283.78;;;21.66;60.49
45285;BME280;31026;43.780;25.948;2022-10-31T03:30:26;101304.06;;;21.99;60.49
45285;BME280;31026;43.780;25.948;2022-10-31T03:32:59;101286.22;;;21.69;62.88
45285;BME280;31026;43.780;25.948;2022-10-31T03:35:31;101293.00;;;21.54;62.96
45285;BME280;31026;43.780;25.948;2022-10-31T03:38:01;101300.44;;;21.40;63.63
45285;BME280;31026;43.780;25.948;2022-10-31T03:40:31;101290.22;;;21.34;64.64
45285;BME280;31026;43.780;25.948;2022-10-31T03:43:02;101285.13;;;21.31;64.01
45285;BME280;31026;43.780;25.948;2022-10-31T03:45:35;101302.97;;;21.32;64.08
45285;BME280;31026;43.780;25.948;2022-10-31T03:48:07;101310.66;;;21.37;63.80
45285;BME280;31026;43.780;25.948;2022-10-31T03:50:37;101318.28;;;21.41;63.80
45285;BME280;31026;43.780;25.948;2022-10-31T03:53:08;101299.16;;;21.35;64.15
45285;BME280;31026;43.780;25.948;2022-10-31T03:55:39;101308.34;;;21.32;64.08
45285;BME280;31026;43.780;25.948;2022-10-31T03:58:10;101313.72;;;21.32;63.77
45285;BME280;31026;43.780;25.948;2022-10-31T04:00:40;101307.94;;;21.27;62.44
45285;BME280;31026;43.780;25.948;2022-10-31T04:03:14;101303.81;;;21.23;63.72
45285;BME280;31026;43.780;25.948;2022-10-31T04:05:43;101313.97;;;21.19;63.83
45285;BME280;31026;43.780;25.948;2022-10-31T04:08:15;101311.16;;;21.21;63.79
45285;BME280;31026;43.780;25.948;2022-10-31T04:10:44;101310.44;;;21.19;63.59
45285;BME280;31026;43.780;25.948;2022-10-31T04:13:15;101314.38;;;21.15;63.75
45285;BME280;31026;43.780;25.948;2022-10-31T04:15:45;101313.28;;;21.17;63.91
45285;BME280;31026;43.780;25.948;2022-10-31T04:18:17;101339.75;;;21.22;63.72
45285;BME280;31026;43.780;25.948;2022-10-31T04:20:46;101338.56;;;21.15;63.71
45285;BME280;31026;43.780;25.948;2022-10-31T04:23:16;101328.38;;;21.09;63.65
45285;BME280;31026;43.780;25.948;2022-10-31T04:25:46;101342.69;;;21.09;64.23
45285;BME280;31026;43.780;25.948;2022-10-31T04:28:14;101336.38;;;20.99;64.26
45285;BME280;31026;43.780;25.948;2022-10-31T04:30:43;101334.25;;;20.93;64.66
45285;BME280;31026;43.780;25.948;2022-10-31T04:33:11;101348.56;;;20.93;64.53
45285;BME280;31026;43.780;25.948;2022-10-31T04:35:42;101347.91;;;21.01;65.58
45285;BME280;31026;43.780;25.948;2022-10-31T04:38:10;101341.94;;;20.97;66.20
45285;BME280;31026;43.780;25.948;2022-10-31T04:40:38;101341.59;;;20.91;67.01
45285;BME280;31026;43.780;25.948;2022-10-31T04:43:07;101351.38;;;20.92;67.20
45285;BME280;31026;43.780;25.948;2022-10-31T04:45:35;101337.34;;;20.88;67.72
45285;BME280;31026;43.780;25.948;2022-10-31T04:48:03;101337.56;;;20.75;69.52
45285;BME280;31026;43.780;25.948;2022-10-31T04:50:32;101343.41;;;20.59;69.08
45285;BME280;31026;43.780;25.948;2022-10-31T04:53:03;101358.91;;;20.56;70.52
45285;BME280;31026;43.780;25.948;2022-10-31T04:55:33;101362.94;;;20.61;69.18
45285;BME280;31026;43.780;25.948;2022-10-31T04:58:02;101357.88;;;20.68;69.97
45285;BME280;31026;43.780;25.948;2022-10-31T05:00:31;101357.88;;;20.68;70.17
45285;BME280;31026;43.780;25.948;2022-10-31T05:02:59;101360.97;;;20.63;69.05
45285;BME280;31026;43.780;25.948;2022-10-31T05:05:29;101373.41;;;20.64;70.29
45285;BME280;31026;43.780;25.948;2022-10-31T05:07:58;101361.47;;;20.57;68.49
45285;BME280;31026;43.780;25.948;2022-10-31T05:10:29;101382.50;;;20.52;69.18
45285;BME280;31026;43.780;25.948;2022-10-31T05:12:59;101369.91;;;20.53;70.85
45285;BME280;31026;43.780;25.948;2022-10-31T05:15:28;101369.31;;;20.49;69.95
45285;BME280;31026;43.780;25.948;2022-10-31T05:17:56;101371.63;;;20.54;69.23
45285;BME280;31026;43.780;25.948;2022-10-31T05:20:25;101377.84;;;20.54;71.61
45285;BME280;31026;43.780;25.948;2022-10-31T05:22:54;101375.41;;;20.51;74.66
45285;BME280;31026;43.780;25.948;2022-10-31T05:25:23;101375.66;;;20.59;69.10
45285;BME280;31026;43.780;25.948;2022-10-31T05:27:55;101366.66;;;20.70;70.33
45285;BME280;31026;43.780;25.948;2022-10-31T05:30:26;101381.41;;;20.76;70.24
45285;BME280;31026;43.780;25.948;2022-10-31T05:32:55;101381.84;;;20.81;68.09
45285;BME280;31026;43.780;25.948;2022-10-31T05:35:24;101366.72;;;20.80;68.42
45285;BME280;31026;43.780;25.948;2022-10-31T05:37:53;101383.31;;;20.85;68.26
45285;BME280;31026;43.780;25.948;2022-10-31T05:40:23;101393.66;;;20.90;68.17
45285;BME280;31026;43.780;25.948;2022-10-31T05:45:36;101380.34;;;20.88;67.13
45285;BME280;31026;43.780;25.948;2022-10-31T05:48:05;101395.34;;;20.91;67.42
45285;BME280;31026;43.780;25.948;2022-10-31T05:50:33;101385.19;;;20.94;67.42
45285;BME280;31026;43.780;25.948;2022-10-31T05:53:03;101401.91;;;20.98;68.86
45285;BME280;31026;43.780;25.948;2022-10-31T05:55:31;101396.78;;;20.95;66.91
45285;BME280;31026;43.780;25.948;2022-10-31T05:58:00;101403.03;;;20.95;66.89
45285;BME280;31026;43.780;25.948;2022-10-31T06:00:29;101391.88;;;21.00;67.00
45285;BME280;31026;43.780;25.948;2022-10-31T06:03:05;101412.00;;;21.05;65.67
45285;BME280;31026;43.780;25.948;2022-10-31T06:05:35;101394.88;;;21.06;65.02
45285;BME280;31026;43.780;25.948;2022-10-31T06:08:04;101403.81;;;21.07;65.36
45285;BME280;31026;43.780;25.948;2022-10-31T06:10:35;101401.97;;;21.08;65.39
45285;BME280;31026;43.780;25.948;2022-10-31T06:13:03;101389.78;;;21.03;65.33
45285;BME280;31026;43.780;25.948;2022-10-31T06:15:32;101405.63;;;21.06;65.07
45285;BME280;31026;43.780;25.948;2022-10-31T06:18:04;101414.47;;;21.18;64.09
45285;BME280;31026;43.780;25.948;2022-10-31T06:20:33;101424.09;;;21.11;64.45
45285;BME280;31026;43.780;25.948;2022-10-31T06:23:02;101409.50;;;21.14;64.77
45285;BME280;31026;43.780;25.948;2022-10-31T06:25:31;101418.69;;;21.11;64.54
45285;BME280;31026;43.780;25.948;2022-10-31T06:28:00;101413.88;;;21.15;65.30
45285;BME280;31026;43.780;25.948;2022-10-31T06:30:28;101430.31;;;21.12;65.07
45285;BME280;31026;43.780;25.948;2022-10-31T06:33:01;101416.44;;;21.16;66.52
45285;BME280;31026;43.780;25.948;2022-10-31T06:35:33;101424.09;;;21.11;64.57
45285;BME280;31026;43.780;25.948;2022-10-31T06:38:01;101445.00;;;21.08;66.71
45285;BME280;31026;43.780;25.948;2022-10-31T06:40:30;101452.59;;;21.02;65.57
45285;BME280;31026;43.780;25.948;2022-10-31T06:42:59;101446.44;;;21.12;66.03
45285;BME280;31026;43.780;25.948;2022-10-31T06:45:28;101432.53;;;21.06;65.83
45285;BME280;31026;43.780;25.948;2022-10-31T06:47:56;101414.69;;;21.05;67.22
45285;BME280;31026;43.780;25.948;2022-10-31T06:50:25;101437.53;;;21.11;66.44
45285;BME280;31026;43.780;25.948;2022-10-31T06:52:57;101433.41;;;21.07;65.42
45285;BME280;31026;43.780;25.948;2022-10-31T06:55:26;101428.88;;;21.08;67.30
45285;BME280;31026;43.780;25.948;2022-10-31T06:57:56;101441.31;;;21.09;67.37
45285;BME280;31026;43.780;25.948;2022-10-31T07:00:26;101421.53;;;21.10;65.21
45285;BME280;31026;43.780;25.948;2022-10-31T07:02:55;101428.34;;;21.14;65.25
45285;BME280;31026;43.780;25.948;2022-10-31T07:05:23;101433.59;;;21.15;65.12
45285;BME280;31026;43.780;25.948;2022-10-31T07:07:52;101416.31;;;21.18;65.97
45285;BME280;31026;43.780;25.948;2022-10-31T07:10:24;101436.53;;;21.12;66.55
45285;BME280;31026;43.780;25.948;2022-10-31T07:12:53;101439.56;;;21.19;66.42
45285;BME280;31026;43.780;25.948;2022-10-31T07:15:22;101433.13;;;21.10;66.49
45285;BME280;31026;43.780;25.948;2022-10-31T07:17:50;101437.38;;;21.13;66.76
45285;BME280;31026;43.780;25.948;2022-10-31T07:20:19;101444.47;;;21.14;66.36
45285;BME280;31026;43.780;25.948;2022-10-31T07:22:47;101427.16;;;21.06;66.03
45285;BME280;31026;43.780;25.948;2022-10-31T07:25:15;101430.72;;;21.07;66.33
45285;BME280;31026;43.780;25.948;2022-10-31T07:27:46;101436.41;;;21.14;66.09
45285;BME280;31026;43.780;25.948;2022-10-31T07:30:14;101401.84;;;21.09;66.05
45285;BME280;31026;43.780;25.948;2022-10-31T07:32:43;101423.94;;;21.13;65.90
45285;BME280;31026;43.780;25.948;2022-10-31T07:35:13;101422.53;;;21.18;65.43
45285;BME280;31026;43.780;25.948;2022-10-31T07:37:41;101405.69;;;21.16;65.30
45285;BME280;31026;43.780;25.948;2022-10-31T07:40:10;101432.63;;;21.26;65.53
45285;BME280;31026;43.780;25.948;2022-10-31T07:42:39;101431.66;;;21.27;65.37
45285;BME280;31026;43.780;25.948;2022-10-31T07:45:11;101419.91;;;21.28;65.25
45285;BME280;31026;43.780;25.948;2022-10-31T07:47:40;101428.69;;;21.30;65.25
45285;BME280;31026;43.780;25.948;2022-10-31T07:50:09;101428.44;;;21.33;65.21
45285;BME280;31026;43.780;25.948;2022-10-31T07:52:38;101453.38;;;21.35;65.26
45285;BME280;31026;43.780;25.948;2022-10-31T07:55:06;101428.44;;;21.33;65.14
45285;BME280;31026;43.780;25.948;2022-10-31T07:57:35;101432.97;;;21.42;64.65
45285;BME280;31026;43.780;25.948;2022-10-31T08:00:04;101437.44;;;21.43;64.69
45285;BME280;31026;43.780;25.948;2022-10-31T08:02:36;101444.50;;;21.44;64.98
45285;BME280;31026;43.780;25.948;2022-10-31T08:05:05;101448.19;;;21.43;64.23
45285;BME280;31026;43.780;25.948;2022-10-31T08:07:35;101444.38;;;21.46;64.21
45285;BME280;31026;43.780;25.948;2022-10-31T08:10:04;101440.97;;;21.44;64.53
45285;BME280;31026;43.780;25.948;2022-10-31T08:12:32;101437.13;;;21.47;63.78
45285;BME280;31026;43.780;25.948;2022-10-31T08:15:01;101438.28;;;21.44;63.19
45285;BME280;31026;43.780;25.948;2022-10-31T08:17:29;101423.13;;;21.43;63.38
45285;BME280;31026;43.780;25.948;2022-10-31T08:20:00;101440.13;;;21.43;63.07
45285;BME280;31026;43.780;25.948;2022-10-31T08:22:29;101431.28;;;21.41;62.63
45285;BME280;31026;43.780;25.948;2022-10-31T08:24:58;101424.91;;;21.42;62.92
45285;BME280;31026;43.780;25.948;2022-10-31T08:27:26;101450.03;;;21.43;63.34
45285;BME280;31026;43.780;25.948;2022-10-31T08:29:54;101431.13;;;21.33;64.10
45285;BME280;31026;43.780;25.948;2022-10-31T08:32:23;101425.63;;;21.35;64.35
45285;BME280;31026;43.780;25.948;2022-10-31T08:34:51;101414.44;;;21.39;63.25
45285;BME280;31026;43.780;25.948;2022-10-31T08:37:22;101425.91;;;21.41;63.41
45285;BME280;31026;43.780;25.948;2022-10-31T08:39:50;101423.13;;;21.43;63.26
45285;BME280;31026;43.780;25.948;2022-10-31T08:42:19;101430.06;;;21.45;63.17
45285;BME280;31026;43.780;25.948;2022-10-31T08:44:47;101421.16;;;21.45;63.12
45285;BME280;31026;43.780;25.948;2022-10-31T08:47:15;101445.81;;;21.50;63.19
45285;BME280;31026;43.780;25.948;2022-10-31T08:49:45;101440.16;;;21.53;63.43
45285;BME280;31026;43.780;25.948;2022-10-31T08:52:14;101414.16;;;21.42;63.70
45285;BME280;31026;43.780;25.948;2022-10-31T08:54:46;101440.34;;;21.40;64.01
45285;BME280;31026;43.780;25.948;2022-10-31T08:57:14;101423.22;;;21.41;63.74
45285;BME280;31026;43.780;25.948;2022-10-31T08:59:42;101436.09;;;21.38;63.95
45285;BME280;31026;43.780;25.948;2022-10-31T09:02:11;101429.28;;;21.34;64.03
45285;BME280;31026;43.780;25.948;2022-10-31T09:04:39;101427.88;;;21.39;64.08
45285;BME280;31026;43.780;25.948;2022-10-31T09:07:07;101430.72;;;21.38;64.12
45285;BME280;31026;43.780;25.948;2022-10-31T09:09:35;101448.81;;;21.36;64.11
45285;BME280;31026;43.780;25.948;2022-10-31T09:12:06;101432.09;;;21.32;64.27
45285;BME280;31026;43.780;25.948;2022-10-31T09:14:36;101422.06;;;21.34;64.36
45285;BME280;31026;43.780;25.948;2022-10-31T09:17:04;101435.69;;;21.42;64.31
45285;BME280;31026;43.780;25.948;2022-10-31T09:19:32;101418.09;;;21.38;64.39
45285;BME280;31026;43.780;25.948;2022-10-31T09:22:02;101439.19;;;21.33;64.81
45285;BME280;31026;43.780;25.948;2022-10-31T09:24:30;101414.97;;;21.33;64.55
45285;BME280;31026;43.780;25.948;2022-10-31T09:26:58;101426.13;;;21.29;64.77
45285;BME280;31026;43.780;25.948;2022-10-31T09:29:29;101434.78;;;21.32;64.53
45285;BME280;31026;43.780;25.948;2022-10-31T09:31:58;101435.78;;;21.31;64.77
45285;BME280;31026;43.780;25.948;2022-10-31T09:34:26;101439.31;;;21.32;64.81
45285;BME280;31026;43.780;25.948;2022-10-31T09:36:54;101432.22;;;21.31;64.91
45285;BME280;31026;43.780;25.948;2022-10-31T09:39:22;101430.41;;;21.31;64.90
45285;BME280;31026;43.780;25.948;2022-10-31T09:41:55;101414.28;;;21.31;64.96
45285;BME280;31026;43.780;25.948;2022-10-31T09:44:30;101423.31;;;21.30;64.77
45285;BME280;31026;43.780;25.948;2022-10-31T09:47:03;101408.00;;;21.31;65.28
45285;BME280;31026;43.780;25.948;2022-10-31T09:49:42;101418.78;;;21.31;64.81
45285;BME280;31026;43.780;25.948;2022-10-31T09:52:18;101415.53;;;21.27;65.07
45285;BME280;31026;43.780;25.948;2022-10-31T09:54:49;101421.88;;;21.26;65.08
45285;BME280;31026;43.780;25.948;2022-10-31T09:57:22;101408.56;;;21.24;64.80
45285;BME280;31026;43.780;25.948;2022-10-31T09:59:55;101421.75;;;21.28;65.02
45285;BME280;31026;43.780;25.948;2022-10-31T10:02:24;101412.84;;;21.27;65.22
45285;BME280;31026;43.780;25.948;2022-10-31T10:04:56;101414.81;;;21.25;65.07
45285;BME280;31026;43.780;25.948;2022-10-31T10:07:30;101420.03;;;21.26;64.79
45285;BME280;31026;43.780;25.948;2022-10-31T10:10:10;101406.44;;;21.28;64.70
45285;BME280;31026;43.780;25.948;2022-10-31T10:12:44;101390.72;;;21.23;65.24
45285;BME280;31026;43.780;25.948;2022-10-31T10:18:09;101387.19;;;21.23;65.23
45285;BME280;31026;43.780;25.948;2022-10-31T10:20:41;101408.28;;;21.28;65.41
45285;BME280;31026;43.780;25.948;2022-10-31T10:23:17;101398.94;;;21.22;65.05
45285;BME280;31026;43.780;25.948;2022-10-31T10:25:50;101390.72;;;21.23;65.31
45285;BME280;31026;43.780;25.948;2022-10-31T10:28:21;101396.69;;;21.27;64.66
45285;BME280;31026;43.780;25.948;2022-10-31T10:30:52;101383.97;;;21.29;64.77
45285;BME280;31026;43.780;25.948;2022-10-31T10:33:28;101389.34;;;21.29;64.78
45285;BME280;31026;43.780;25.948;2022-10-31T10:36:00;101403.75;;;21.28;65.25
45285;BME280;31026;43.780;25.948;2022-10-31T10:38:32;101402.47;;;21.22;65.11
45285;BME280;31026;43.780;25.948;2022-10-31T10:41:17;101390.72;;;21.23;64.97
45285;BME280;31026;43.780;25.948;2022-10-31T10:43:45;101387.31;;;21.21;65.42
45285;BME280;31026;43.780;25.948;2022-10-31T10:46:21;101385.66;;;21.30;65.28
45285;BME280;31026;43.780;25.948;2022-10-31T10:49:14;101370.06;;;21.24;65.13
45285;BME280;31026;43.780;25.948;2022-10-31T10:51:44;101382.38;;;21.26;64.71
45285;BME280;31026;43.780;25.948;2022-10-31T10:56:58;101379.69;;;21.26;65.24
45285;BME280;31026;43.780;25.948;2022-10-31T10:59:28;101378.00;;;21.25;65.06
45285;BME280;31026;43.780;25.948;2022-10-31T11:01:56;101371.47;;;21.28;64.86
45285;BME280;31026;43.780;25.948;2022-10-31T11:04:32;101378.59;;;21.29;64.73
45285;BME280;31026;43.780;25.948;2022-10-31T11:07:01;101372.19;;;21.30;65.00
45285;BME280;31026;43.780;25.948;2022-10-31T11:09:30;101362.56;;;21.28;64.80
45285;BME280;31026;43.780;25.948;2022-10-31T11:11:58;101378.59;;;21.29;64.72
45285;BME280;31026;43.780;25.948;2022-10-31T11:14:27;101366.69;;;21.32;64.64
45285;BME280;31026;43.780;25.948;2022-10-31T11:17:07;101354.22;;;21.31;64.75
45285;BME280;31026;43.780;25.948;2022-10-31T11:19:39;101359.59;;;21.31;64.83
45285;BME280;31026;43.780;25.948;2022-10-31T11:22:08;101365.56;;;21.34;64.81
45285;BME280;31026;43.780;25.948;2022-10-31T11:24:41;101358.91;;;21.38;64.57
45285;BME280;31026;43.780;25.948;2022-10-31T11:27:15;101348.56;;;21.34;64.80
45285;BME280;31026;43.780;25.948;2022-10-31T11:29:44;101344.03;;;21.34;64.71
45285;BME280;31026;43.780;25.948;2022-10-31T11:32:16;101352.97;;;21.35;64.33
45285;BME280;31026;43.780;25.948;2022-10-31T11:34:49;101363.03;;;21.42;64.51
45285;BME280;31026;43.780;25.948;2022-10-31T11:37:18;101356.81;;;21.42;64.55
45285;BME280;31026;43.780;25.948;2022-10-31T11:39:49;101339.94;;;21.40;64.39
45285;BME280;31026;43.780;25.948;2022-10-31T11:42:20;101346.03;;;21.42;64.69
45285;BME280;31026;43.780;25.948;2022-10-31T11:44:51;101345.47;;;21.38;64.36
45285;BME280;31026;43.780;25.948;2022-10-31T11:47:23;101323.41;;;21.44;63.57
45285;BME280;31026;43.780;25.948;2022-10-31T11:49:56;101333.91;;;21.48;63.64
45285;BME280;31026;43.780;25.948;2022-10-31T11:52:25;101328.53;;;21.48;63.94
45285;BME280;31026;43.780;25.948;2022-10-31T11:54:55;101324.56;;;21.52;63.56
45285;BME280;31026;43.780;25.948;2022-10-31T11:57:27;101315.78;;;21.50;64.01
45285;BME280;31026;43.780;25.948;2022-10-31T11:59:57;101325.72;;;21.49;64.17
45285;BME280;31026;43.780;25.948;2022-10-31T12:02:26;101334.38;;;21.53;63.95
45285;BME280;31026;43.780;25.948;2022-10-31T12:05:04;101321.16;;;21.50;64.01
45285;BME280;31026;43.780;25.948;2022-10-31T12:07:37;101319.91;;;21.54;63.75
45285;BME280;31026;43.780;25.948;2022-10-31T12:10:09;101321.44;;;21.47;63.57
45285;BME280;31026;43.780;25.948;2022-10-31T12:12:50;101321.16;;;21.50;63.62
45285;BME280;31026;43.780;25.948;2022-10-31T12:18:15;101319.44;;;21.49;63.61
45285;BME280;31026;43.780;25.948;2022-10-31T12:20:52;101316.75;;;21.49;63.83
45285;BME280;31026;43.780;25.948;2022-10-31T12:23:24;101319.75;;;21.45;63.45
45285;BME280;31026;43.780;25.948;2022-10-31T12:26:00;101310.28;;;21.51;63.27
45285;BME280;31026;43.780;25.948;2022-10-31T12:28:36;101316.66;;;21.60;63.59
45285;BME280;31026;43.780;25.948;2022-10-31T12:31:12;101320.34;;;21.59;63.20
45285;BME280;31026;43.780;25.948;2022-10-31T12:33:47;101316.25;;;21.55;63.36
45285;BME280;31026;43.780;25.948;2022-10-31T12:36:25;101323.16;;;21.57;63.32
45285;BME280;31026;43.780;25.948;2022-10-31T12:39:10;101317.78;;;21.57;63.46
45285;BME280;31026;43.780;25.948;2022-10-31T12:41:45;101312.97;;;21.51;63.71
45285;BME280;31026;43.780;25.948;2022-10-31T12:44:22;101316.06;;;21.47;63.42
45285;BME280;31026;43.780;25.948;2022-10-31T12:46:59;101303.81;;;21.33;64.29
45285;BME280;31026;43.780;25.948;2022-10-31T12:49:37;101320.25;;;21.30;64.31
45285;BME280;31026;43.780;25.948;2022-10-31T12:52:16;101319.06;;;21.22;64.61
45285;BME280;31026;43.780;25.948;2022-10-31T12:54:57;101317.66;;;21.18;64.39
45285;BME280;31026;43.780;25.948;2022-10-31T12:57:32;101314.41;;;21.24;64.29
45285;BME280;31026;43.780;25.948;2022-10-31T13:00:02;101307.06;;;21.26;64.61
45285;BME280;31026;43.780;25.948;2022-10-31T13:02:32;101320.50;;;21.26;63.40
45285;BME280;31026;43.780;25.948;2022-10-31T13:05:05;101317.59;;;21.39;63.72
45285;BME280;31026;43.780;25.948;2022-10-31T13:07:42;101340.06;;;21.38;62.83
45285;BME280;31026;43.780;25.948;2022-10-31T13:10:15;101332.38;;;21.24;63.42